sensor_id;sensor_type;location;lat;lon;timestamp;P1;durP1;ratioP1;P2;durP2;ratioP2
18649;SDS011;9454;53.516;10.478;2023-02-21T00:02:14;3.58;;;0.50;;
18649;SDS011;9454;53.516;10.478;2023-02-21T00:05:36;0.20;;;0.20;;
18649;SDS011;9454;53.516;10.478;2023-02-21T00:09:00;0.40;;;0.40;;
18649;SDS011;9454;53.516;10.478;2023-02-21T00:12:22;0.40;;;0.40;;
18649;SDS011;9454;53.516;10.478;2023-02-21T00:15:44;0.30;;;0.30;;
18649;SDS011;9454;53.516;10.478;2023-02-21T00:19:06;0.30;;;0.30;;
18649;SDS011;9454;53.516;10.478;2023-02-21T00:22:27;0.30;;;0.30;;
18649;SDS011;9454;53.516;10.478;2023-02-21T00:25:55;1.55;;;0.30;;
18649;SDS011;9454;53.516;10.478;2023-02-21T00:29:20;0.35;;;0.30;;
18649;SDS011;9454;53.516;10.478;2023-02-21T00:32:46;0.30;;;0.30;;
18649;SDS011;9454;53.516;10.478;2023-02-21T00:36:08;0.22;;;0.22;;
18649;SDS011;9454;53.516;10.478;2023-02-21T00:39:30;0.25;;;0.25;;
18649;SDS011;9454;53.516;10.478;2023-02-21T00:42:51;0.55;;;0.40;;
18649;SDS011;9454;53.516;10.478;2023-02-21T00:46:23;0.35;;;0.35;;
18649;SDS011;9454;53.516;10.478;2023-02-21T00:49:48;0.17;;;0.17;;
18649;SDS011;9454;53.516;10.478;2023-02-21T00:53:22;0.20;;;0.20;;
18649;SDS011;9454;53.516;10.478;2023-02-21T00:56:44;0.35;;;0.30;;
18649;SDS011;9454;53.516;10.478;2023-02-21T01:00:15;0.70;;;0.38;;
18649;SDS011;9454;53.516;10.478;2023-02-21T01:03:37;0.30;;;0.30;;
18649;SDS011;9454;53.516;10.478;2023-02-21T01:06:59;0.88;;;0.50;;
18649;SDS011;9454;53.516;10.478;2023-02-21T01:10:20;1.77;;;0.60;;
18649;SDS011;9454;53.516;10.478;2023-02-21T01:13:44;2.53;;;0.45;;
18649;SDS011;9454;53.516;10.478;2023-02-21T01:17:06;0.40;;;0.40;;
18649;SDS011;9454;53.516;10.478;2023-02-21T01:20:29;0.30;;;0.30;;
18649;SDS011;9454;53.516;10.478;2023-02-21T01:23:53;0.45;;;0.30;;
18649;SDS011;9454;53.516;10.478;2023-02-21T01:27:15;0.70;;;0.70;;
18649;SDS011;9454;53.516;10.478;2023-02-21T01:30:36;0.30;;;0.30;;
18649;SDS011;9454;53.516;10.478;2023-02-21T01:33:58;0.30;;;0.30;;
18649;SDS011;9454;53.516;10.478;2023-02-21T01:37:19;0.38;;;0.30;;
18649;SDS011;9454;53.516;10.478;2023-02-21T01:40:42;0.28;;;0.28;;
18649;SDS011;9454;53.516;10.478;2023-02-21T01:44:05;0.20;;;0.20;;
18649;SDS011;9454;53.516;10.478;2023-02-21T01:47:27;2.40;;;0.38;;
18649;SDS011;9454;53.516;10.478;2023-02-21T01:50:50;0.40;;;0.40;;
18649;SDS011;9454;53.516;10.478;2023-02-21T01:54:12;0.30;;;0.30;;
18649;SDS011;9454;53.516;10.478;2023-02-21T01:57:41;0.40;;;0.40;;
18649;SDS011;9454;53.516;10.478;2023-02-21T02:01:05;4.57;;;0.38;;
18649;SDS011;9454;53.516;10.478;2023-02-21T02:04:31;0.30;;;0.30;;
18649;SDS011;9454;53.516;10.478;2023-02-21T02:07:54;0.28;;;0.28;;
18649;SDS011;9454;53.516;10.478;2023-02-21T02:11:19;1.65;;;0.30;;
18649;SDS011;9454;53.516;10.478;2023-02-21T02:15:02;2.13;;;0.30;;
18649;SDS011;9454;53.516;10.478;2023-02-21T02:18:15;0.55;;;0.30;;
18649;SDS011;9454;53.516;10.478;2023-02-21T02:24:51;0.30;;;0.30;;
18649;SDS011;9454;53.516;10.478;2023-02-21T02:28:16;0.30;;;0.30;;
18649;SDS011;9454;53.516;10.478;2023-02-21T02:31:35;0.30;;;0.30;;
18649;SDS011;9454;53.516;10.478;2023-02-21T02:34:47;0.57;;;0.40;;
18649;SDS011;9454;53.516;10.478;2023-02-21T02:37:53;0.38;;;0.38;;
18649;SDS011;9454;53.516;10.478;2023-02-21T02:41:04;0.30;;;0.30;;
18649;SDS011;9454;53.516;10.478;2023-02-21T02:44:12;0.30;;;0.30;;
18649;SDS011;9454;53.516;10.478;2023-02-21T02:47:18;0.95;;;0.30;;
18649;SDS011;9454;53.516;10.478;2023-02-21T02:50:23;1.52;;;0.50;;
18649;SDS011;9454;53.516;10.478;2023-02-21T02:53:32;0.30;;;0.30;;
18649;SDS011;9454;53.516;10.478;2023-02-21T02:56:38;0.30;;;0.30;;
18649;SDS011;9454;53.516;10.478;2023-02-21T02:59:49;0.73;;;0.40;;
18649;SDS011;9454;53.516;10.478;2023-02-21T03:02:59;0.30;;;0.30;;
18649;SDS011;9454;53.516;10.478;2023-02-21T03:06:18;0.30;;;0.30;;
18649;SDS011;9454;53.516;10.478;2023-02-21T03:09:28;0.40;;;0.40;;
18649;SDS011;9454;53.516;10.478;2023-02-21T03:12:40;0.30;;;0.30;;
18649;SDS011;9454;53.516;10.478;2023-02-21T03:15:48;0.20;;;0.20;;
18649;SDS011;9454;53.516;10.478;2023-02-21T03:18:56;0.30;;;0.30;;
18649;SDS011;9454;53.516;10.478;2023-02-21T03:22:02;0.20;;;0.20;;
18649;SDS011;9454;53.516;10.478;2023-02-21T03:25:07;0.30;;;0.30;;
18649;SDS011;9454;53.516;10.478;2023-02-21T03:28:15;0.32;;;0.32;;
18649;SDS011;9454;53.516;10.478;2023-02-21T03:31:25;0.30;;;0.30;;
18649;SDS011;9454;53.516;10.478;2023-02-21T03:34:31;0.30;;;0.30;;
18649;SDS011;9454;53.516;10.478;2023-02-21T03:37:41;0.28;;;0.28;;
18649;SDS011;9454;53.516;10.478;2023-02-21T03:40:46;1.02;;;0.30;;
18649;SDS011;9454;53.516;10.478;2023-02-21T03:43:53;0.32;;;0.32;;
18649;SDS011;9454;53.516;10.478;2023-02-21T03:46:57;0.30;;;0.30;;
18649;SDS011;9454;53.516;10.478;2023-02-21T03:50:03;0.40;;;0.30;;
18649;SDS011;9454;53.516;10.478;2023-02-21T03:53:13;0.30;;;0.30;;
18649;SDS011;9454;53.516;10.478;2023-02-21T03:56:18;0.30;;;0.30;;
18649;SDS011;9454;53.516;10.478;2023-02-21T03:59:41;0.30;;;0.30;;
18649;SDS011;9454;53.516;10.478;2023-02-21T04:02:54;0.95;;;0.30;;
18649;SDS011;9454;53.516;10.478;2023-02-21T04:06:11;0.30;;;0.30;;
18649;SDS011;9454;53.516;10.478;2023-02-21T04:09:16;0.30;;;0.30;;
18649;SDS011;9454;53.516;10.478;2023-02-21T04:12:22;0.52;;;0.40;;
18649;SDS011;9454;53.516;10.478;2023-02-21T04:15:27;0.30;;;0.30;;
18649;SDS011;9454;53.516;10.478;2023-02-21T04:18:31;0.60;;;0.35;;
18649;SDS011;9454;53.516;10.478;2023-02-21T04:21:40;0.35;;;0.35;;
18649;SDS011;9454;53.516;10.478;2023-02-21T04:24:46;0.50;;;0.50;;
18649;SDS011;9454;53.516;10.478;2023-02-21T04:27:51;1.30;;;0.50;;
18649;SDS011;9454;53.516;10.478;2023-02-21T04:30:57;1.38;;;0.60;;
18649;SDS011;9454;53.516;10.478;2023-02-21T04:34:03;0.52;;;0.52;;
18649;SDS011;9454;53.516;10.478;2023-02-21T04:37:21;1.00;;;0.50;;
18649;SDS011;9454;53.516;10.478;2023-02-21T04:40:29;0.85;;;0.80;;
18649;SDS011;9454;53.516;10.478;2023-02-21T04:43:32;0.50;;;0.50;;
18649;SDS011;9454;53.516;10.478;2023-02-21T04:46:36;0.60;;;0.55;;
18649;SDS011;9454;53.516;10.478;2023-02-21T04:49:41;0.60;;;0.60;;
18649;SDS011;9454;53.516;10.478;2023-02-21T04:52:52;0.77;;;0.50;;
18649;SDS011;9454;53.516;10.478;2023-02-21T04:55:57;0.80;;;0.57;;
18649;SDS011;9454;53.516;10.478;2023-02-21T04:59:06;0.50;;;0.50;;
18649;SDS011;9454;53.516;10.478;2023-02-21T05:02:10;1.58;;;0.90;;
18649;SDS011;9454;53.516;10.478;2023-02-21T05:05:18;2.10;;;0.77;;
18649;SDS011;9454;53.516;10.478;2023-02-21T05:08:21;1.42;;;0.82;;
18649;SDS011;9454;53.516;10.478;2023-02-21T05:11:38;1.92;;;1.02;;
18649;SDS011;9454;53.516;10.478;2023-02-21T05:14:44;1.15;;;0.60;;
18649;SDS011;9454;53.516;10.478;2023-02-21T05:17:48;1.80;;;0.80;;
18649;SDS011;9454;53.516;10.478;2023-02-21T05:20:54;2.92;;;0.93;;
18649;SDS011;9454;53.516;10.478;2023-02-21T05:24:01;1.90;;;0.60;;
18649;SDS011;9454;53.516;10.478;2023-02-21T05:27:06;6.82;;;0.90;;
18649;SDS011;9454;53.516;10.478;2023-02-21T05:30:12;4.45;;;0.70;;
18649;SDS011;9454;53.516;10.478;2023-02-21T05:33:19;8.07;;;0.90;;
18649;SDS011;9454;53.516;10.478;2023-02-21T05:36:23;3.03;;;0.80;;
18649;SDS011;9454;53.516;10.478;2023-02-21T05:39:27;6.32;;;0.98;;
18649;SDS011;9454;53.516;10.478;2023-02-21T05:42:39;3.05;;;0.88;;
18649;SDS011;9454;53.516;10.478;2023-02-21T05:45:43;6.32;;;1.08;;
18649;SDS011;9454;53.516;10.478;2023-02-21T05:48:53;9.45;;;1.25;;
18649;SDS011;9454;53.516;10.478;2023-02-21T05:51:57;4.50;;;1.05;;
18649;SDS011;9454;53.516;10.478;2023-02-21T05:55:03;5.43;;;1.20;;
18649;SDS011;9454;53.516;10.478;2023-02-21T05:58:15;9.40;;;1.15;;
18649;SDS011;9454;53.516;10.478;2023-02-21T06:01:21;5.43;;;1.05;;
18649;SDS011;9454;53.516;10.478;2023-02-21T06:04:27;2.03;;;0.70;;
18649;SDS011;9454;53.516;10.478;2023-02-21T06:07:38;10.13;;;1.48;;
18649;SDS011;9454;53.516;10.478;2023-02-21T06:10:42;12.93;;;1.30;;
18649;SDS011;9454;53.516;10.478;2023-02-21T06:13:50;10.70;;;1.90;;
18649;SDS011;9454;53.516;10.478;2023-02-21T06:16:57;7.55;;;1.40;;
18649;SDS011;9454;53.516;10.478;2023-02-21T06:20:01;4.45;;;1.27;;
18649;SDS011;9454;53.516;10.478;2023-02-21T06:23:04;9.45;;;1.38;;
18649;SDS011;9454;53.516;10.478;2023-02-21T06:26:16;17.13;;;1.73;;
18649;SDS011;9454;53.516;10.478;2023-02-21T06:29:24;4.95;;;1.23;;
18649;SDS011;9454;53.516;10.478;2023-02-21T06:32:28;18.77;;;1.83;;
18649;SDS011;9454;53.516;10.478;2023-02-21T06:35:32;4.18;;;1.10;;
18649;SDS011;9454;53.516;10.478;2023-02-21T06:38:36;8.30;;;1.25;;
18649;SDS011;9454;53.516;10.478;2023-02-21T06:41:43;10.95;;;1.67;;
18649;SDS011;9454;53.516;10.478;2023-02-21T06:44:49;7.05;;;1.30;;
18649;SDS011;9454;53.516;10.478;2023-02-21T06:47:56;13.15;;;1.63;;
18649;SDS011;9454;53.516;10.478;2023-02-21T06:51:02;10.07;;;1.77;;
18649;SDS011;9454;53.516;10.478;2023-02-21T06:54:07;17.85;;;3.97;;
18649;SDS011;9454;53.516;10.478;2023-02-21T06:57:16;16.85;;;3.78;;
18649;SDS011;9454;53.516;10.478;2023-02-21T07:00:24;6.82;;;1.95;;
18649;SDS011;9454;53.516;10.478;2023-02-21T07:03:29;11.48;;;2.58;;
18649;SDS011;9454;53.516;10.478;2023-02-21T07:06:33;14.50;;;3.78;;
18649;SDS011;9454;53.516;10.478;2023-02-21T07:09:40;11.25;;;2.80;;
18649;SDS011;9454;53.516;10.478;2023-02-21T07:12:44;13.32;;;2.65;;
18649;SDS011;9454;53.516;10.478;2023-02-21T07:15:54;21.70;;;4.88;;
18649;SDS011;9454;53.516;10.478;2023-02-21T07:18:59;8.40;;;2.95;;
18649;SDS011;9454;53.516;10.478;2023-02-21T07:22:03;8.30;;;2.13;;
18649;SDS011;9454;53.516;10.478;2023-02-21T07:25:20;13.25;;;1.33;;
18649;SDS011;9454;53.516;10.478;2023-02-21T07:28:37;10.02;;;1.55;;
18649;SDS011;9454;53.516;10.478;2023-02-21T07:31:43;10.88;;;1.80;;
18649;SDS011;9454;53.516;10.478;2023-02-21T07:34:47;11.00;;;1.63;;
18649;SDS011;9454;53.516;10.478;2023-02-21T07:37:51;15.43;;;1.58;;
18649;SDS011;9454;53.516;10.478;2023-02-21T07:40:58;10.15;;;1.95;;
18649;SDS011;9454;53.516;10.478;2023-02-21T07:48:19;11.27;;;1.80;;
18649;SDS011;9454;53.516;10.478;2023-02-21T07:51:28;17.60;;;1.67;;
18649;SDS011;9454;53.516;10.478;2023-02-21T07:54:37;4.25;;;1.30;;
18649;SDS011;9454;53.516;10.478;2023-02-21T07:57:41;7.88;;;1.27;;
18649;SDS011;9454;53.516;10.478;2023-02-21T08:00:45;11.93;;;1.65;;
18649;SDS011;9454;53.516;10.478;2023-02-21T08:04:00;8.85;;;1.08;;
18649;SDS011;9454;53.516;10.478;2023-02-21T08:07:15;14.75;;;2.08;;
18649;SDS011;9454;53.516;10.478;2023-02-21T08:11:18;7.47;;;1.73;;
18649;SDS011;9454;53.516;10.478;2023-02-21T08:14:58;9.80;;;1.80;;
18649;SDS011;9454;53.516;10.478;2023-02-21T08:18:45;14.98;;;1.52;;
18649;SDS011;9454;53.516;10.478;2023-02-21T08:26:53;10.07;;;1.52;;
18649;SDS011;9454;53.516;10.478;2023-02-21T08:33:37;19.95;;;6.03;;
18649;SDS011;9454;53.516;10.478;2023-02-21T08:36:42;34.17;;;8.98;;
18649;SDS011;9454;53.516;10.478;2023-02-21T08:39:45;22.95;;;5.90;;
18649;SDS011;9454;53.516;10.478;2023-02-21T08:42:53;16.40;;;2.40;;
18649;SDS011;9454;53.516;10.478;2023-02-21T08:46:00;10.50;;;1.90;;
18649;SDS011;9454;53.516;10.478;2023-02-21T08:49:14;6.97;;;1.73;;
18649;SDS011;9454;53.516;10.478;2023-02-21T08:52:20;9.88;;;2.22;;
18649;SDS011;9454;53.516;10.478;2023-02-21T08:55:24;11.82;;;2.42;;
18649;SDS011;9454;53.516;10.478;2023-02-21T08:58:28;7.38;;;1.90;;
18649;SDS011;9454;53.516;10.478;2023-02-21T09:01:33;10.57;;;1.50;;
18649;SDS011;9454;53.516;10.478;2023-02-21T09:05:59;9.82;;;3.55;;
18649;SDS011;9454;53.516;10.478;2023-02-21T09:09:16;16.42;;;1.63;;
18649;SDS011;9454;53.516;10.478;2023-02-21T09:12:21;12.85;;;1.35;;
18649;SDS011;9454;53.516;10.478;2023-02-21T09:15:26;14.60;;;2.08;;
18649;SDS011;9454;53.516;10.478;2023-02-21T09:18:30;14.63;;;1.77;;
18649;SDS011;9454;53.516;10.478;2023-02-21T09:21:34;10.45;;;1.25;;
18649;SDS011;9454;53.516;10.478;2023-02-21T09:24:46;9.00;;;1.67;;
18649;SDS011;9454;53.516;10.478;2023-02-21T09:27:53;6.47;;;1.63;;
18649;SDS011;9454;53.516;10.478;2023-02-21T09:31:01;4.70;;;1.42;;
18649;SDS011;9454;53.516;10.478;2023-02-21T09:34:07;8.10;;;1.75;;
18649;SDS011;9454;53.516;10.478;2023-02-21T09:37:11;12.63;;;2.08;;
18649;SDS011;9454;53.516;10.478;2023-02-21T09:40:17;9.80;;;1.30;;
18649;SDS011;9454;53.516;10.478;2023-02-21T09:43:30;5.25;;;1.50;;
18649;SDS011;9454;53.516;10.478;2023-02-21T09:46:55;15.13;;;1.90;;
18649;SDS011;9454;53.516;10.478;2023-02-21T09:50:22;12.65;;;1.65;;
18649;SDS011;9454;53.516;10.478;2023-02-21T09:53:30;13.90;;;2.22;;
18649;SDS011;9454;53.516;10.478;2023-02-21T09:56:36;17.85;;;2.25;;
18649;SDS011;9454;53.516;10.478;2023-02-21T09:59:46;10.80;;;1.85;;
18649;SDS011;9454;53.516;10.478;2023-02-21T10:02:58;10.52;;;1.52;;
18649;SDS011;9454;53.516;10.478;2023-02-21T10:06:07;10.63;;;1.85;;
18649;SDS011;9454;53.516;10.478;2023-02-21T10:09:22;13.13;;;1.70;;
18649;SDS011;9454;53.516;10.478;2023-02-21T10:12:28;10.35;;;1.45;;
18649;SDS011;9454;53.516;10.478;2023-02-21T10:15:38;8.73;;;1.58;;
18649;SDS011;9454;53.516;10.478;2023-02-21T10:19:09;11.52;;;1.45;;
18649;SDS011;9454;53.516;10.478;2023-02-21T10:32:18;15.70;;;1.70;;
18649;SDS011;9454;53.516;10.478;2023-02-21T10:35:22;6.95;;;1.52;;
18649;SDS011;9454;53.516;10.478;2023-02-21T10:38:49;14.82;;;2.00;;
18649;SDS011;9454;53.516;10.478;2023-02-21T10:41:57;8.48;;;1.58;;
18649;SDS011;9454;53.516;10.478;2023-02-21T10:50:17;12.10;;;1.77;;
18649;SDS011;9454;53.516;10.478;2023-02-21T10:53:41;9.75;;;1.55;;
18649;SDS011;9454;53.516;10.478;2023-02-21T10:56:59;9.88;;;1.15;;
18649;SDS011;9454;53.516;10.478;2023-02-21T11:00:05;12.25;;;1.85;;
18649;SDS011;9454;53.516;10.478;2023-02-21T11:03:20;6.63;;;1.60;;
18649;SDS011;9454;53.516;10.478;2023-02-21T11:13:46;6.32;;;1.35;;
18649;SDS011;9454;53.516;10.478;2023-02-21T11:18:10;16.27;;;1.80;;
18649;SDS011;9454;53.516;10.478;2023-02-21T11:22:37;11.23;;;2.10;;
18649;SDS011;9454;53.516;10.478;2023-02-21T11:26:04;9.20;;;1.40;;
18649;SDS011;9454;53.516;10.478;2023-02-21T11:29:30;9.10;;;1.77;;
18649;SDS011;9454;53.516;10.478;2023-02-21T11:32:36;9.73;;;1.75;;
18649;SDS011;9454;53.516;10.478;2023-02-21T11:42:34;10.40;;;1.85;;
18649;SDS011;9454;53.516;10.478;2023-02-21T11:46:33;14.25;;;2.08;;
18649;SDS011;9454;53.516;10.478;2023-02-21T11:49:46;7.70;;;1.30;;
18649;SDS011;9454;53.516;10.478;2023-02-21T11:52:54;6.90;;;1.70;;
18649;SDS011;9454;53.516;10.478;2023-02-21T11:56:00;17.05;;;1.90;;
18649;SDS011;9454;53.516;10.478;2023-02-21T11:59:11;12.65;;;1.30;;
18649;SDS011;9454;53.516;10.478;2023-02-21T12:02:53;17.30;;;2.15;;
18649;SDS011;9454;53.516;10.478;2023-02-21T12:06:47;7.35;;;1.15;;
18649;SDS011;9454;53.516;10.478;2023-02-21T12:10:02;9.05;;;1.48;;
18649;SDS011;9454;53.516;10.478;2023-02-21T12:13:21;5.43;;;1.40;;
18649;SDS011;9454;53.516;10.478;2023-02-21T12:20:45;11.68;;;1.80;;
18649;SDS011;9454;53.516;10.478;2023-02-21T12:23:56;9.23;;;1.27;;
18649;SDS011;9454;53.516;10.478;2023-02-21T12:35:27;7.50;;;1.30;;
18649;SDS011;9454;53.516;10.478;2023-02-21T12:38:38;14.27;;;1.35;;
18649;SDS011;9454;53.516;10.478;2023-02-21T12:41:57;17.25;;;2.65;;
18649;SDS011;9454;53.516;10.478;2023-02-21T12:50:17;8.77;;;1.20;;
18649;SDS011;9454;53.516;10.478;2023-02-21T13:03:21;10.45;;;1.33;;
18649;SDS011;9454;53.516;10.478;2023-02-21T13:06:34;10.45;;;2.65;;
18649;SDS011;9454;53.516;10.478;2023-02-21T13:09:58;14.18;;;2.20;;
18649;SDS011;9454;53.516;10.478;2023-02-21T13:13:08;2.40;;;1.02;;
18649;SDS011;9454;53.516;10.478;2023-02-21T13:16:20;9.40;;;2.30;;
18649;SDS011;9454;53.516;10.478;2023-02-21T13:19:36;5.40;;;1.27;;
18649;SDS011;9454;53.516;10.478;2023-02-21T13:26:51;5.82;;;1.08;;
18649;SDS011;9454;53.516;10.478;2023-02-21T13:30:02;7.05;;;1.15;;
18649;SDS011;9454;53.516;10.478;2023-02-21T13:33:20;8.45;;;1.58;;
18649;SDS011;9454;53.516;10.478;2023-02-21T13:36:27;4.97;;;1.88;;
18649;SDS011;9454;53.516;10.478;2023-02-21T13:39:32;8.07;;;2.17;;
18649;SDS011;9454;53.516;10.478;2023-02-21T13:42:45;4.57;;;1.02;;
18649;SDS011;9454;53.516;10.478;2023-02-21T13:45:48;9.27;;;1.42;;
18649;SDS011;9454;53.516;10.478;2023-02-21T13:55:38;7.68;;;1.50;;
18649;SDS011;9454;53.516;10.478;2023-02-21T13:58:45;8.13;;;1.35;;
18649;SDS011;9454;53.516;10.478;2023-02-21T14:01:49;9.65;;;1.55;;
18649;SDS011;9454;53.516;10.478;2023-02-21T14:05:06;12.73;;;1.70;;
18649;SDS011;9454;53.516;10.478;2023-02-21T14:08:11;6.93;;;1.05;;
18649;SDS011;9454;53.516;10.478;2023-02-21T14:11:19;8.15;;;1.15;;
18649;SDS011;9454;53.516;10.478;2023-02-21T14:14:26;20.38;;;2.10;;
18649;SDS011;9454;53.516;10.478;2023-02-21T14:17:33;5.88;;;1.10;;
18649;SDS011;9454;53.516;10.478;2023-02-21T14:21:26;11.45;;;1.50;;
18649;SDS011;9454;53.516;10.478;2023-02-21T14:24:33;5.40;;;0.88;;
18649;SDS011;9454;53.516;10.478;2023-02-21T14:27:39;8.45;;;1.23;;
18649;SDS011;9454;53.516;10.478;2023-02-21T14:30:44;6.38;;;1.77;;
18649;SDS011;9454;53.516;10.478;2023-02-21T14:33:50;18.42;;;3.90;;
18649;SDS011;9454;53.516;10.478;2023-02-21T14:36:56;15.43;;;2.28;;
18649;SDS011;9454;53.516;10.478;2023-02-21T14:40:00;8.80;;;1.15;;
18649;SDS011;9454;53.516;10.478;2023-02-21T14:43:19;2.40;;;1.17;;
18649;SDS011;9454;53.516;10.478;2023-02-21T14:46:35;8.85;;;1.90;;
18649;SDS011;9454;53.516;10.478;2023-02-21T14:49:51;17.10;;;1.55;;
18649;SDS011;9454;53.516;10.478;2023-02-21T14:53:16;6.70;;;1.15;;
18649;SDS011;9454;53.516;10.478;2023-02-21T14:56:24;11.00;;;1.70;;
18649;SDS011;9454;53.516;10.478;2023-02-21T14:59:51;8.00;;;1.48;;
18649;SDS011;9454;53.516;10.478;2023-02-21T15:03:00;4.47;;;1.25;;
18649;SDS011;9454;53.516;10.478;2023-02-21T15:06:24;5.97;;;1.27;;
18649;SDS011;9454;53.516;10.478;2023-02-21T15:09:29;8.48;;;1.45;;
18649;SDS011;9454;53.516;10.478;2023-02-21T15:12:32;11.23;;;1.42;;
18649;SDS011;9454;53.516;10.478;2023-02-21T15:15:43;2.67;;;1.00;;
18649;SDS011;9454;53.516;10.478;2023-02-21T15:18:55;5.13;;;1.40;;
18649;SDS011;9454;53.516;10.478;2023-02-21T15:25:26;6.53;;;1.13;;
18649;SDS011;9454;53.516;10.478;2023-02-21T15:28:31;3.50;;;0.70;;
18649;SDS011;9454;53.516;10.478;2023-02-21T15:31:38;3.97;;;0.70;;
18649;SDS011;9454;53.516;10.478;2023-02-21T15:34:43;10.27;;;2.28;;
18649;SDS011;9454;53.516;10.478;2023-02-21T15:37:47;11.38;;;1.40;;
18649;SDS011;9454;53.516;10.478;2023-02-21T15:40:51;8.05;;;1.33;;
18649;SDS011;9454;53.516;10.478;2023-02-21T15:43:59;12.25;;;1.63;;
18649;SDS011;9454;53.516;10.478;2023-02-21T15:47:06;7.57;;;1.52;;
18649;SDS011;9454;53.516;10.478;2023-02-21T15:50:12;7.60;;;1.30;;
18649;SDS011;9454;53.516;10.478;2023-02-21T15:53:18;8.38;;;1.25;;
18649;SDS011;9454;53.516;10.478;2023-02-21T15:56:23;4.82;;;1.23;;
18649;SDS011;9454;53.516;10.478;2023-02-21T15:59:29;8.60;;;1.00;;
18649;SDS011;9454;53.516;10.478;2023-02-21T16:02:34;6.43;;;1.10;;
18649;SDS011;9454;53.516;10.478;2023-02-21T16:05:38;4.35;;;1.10;;
18649;SDS011;9454;53.516;10.478;2023-02-21T16:08:49;9.45;;;1.20;;
18649;SDS011;9454;53.516;10.478;2023-02-21T16:11:54;3.05;;;0.93;;
18649;SDS011;9454;53.516;10.478;2023-02-21T16:14:59;1.80;;;0.80;;
18649;SDS011;9454;53.516;10.478;2023-02-21T16:18:05;8.02;;;1.00;;
18649;SDS011;9454;53.516;10.478;2023-02-21T16:21:12;3.80;;;1.02;;
18649;SDS011;9454;53.516;10.478;2023-02-21T16:24:27;3.85;;;1.05;;
18649;SDS011;9454;53.516;10.478;2023-02-21T16:27:31;8.25;;;1.27;;
18649;SDS011;9454;53.516;10.478;2023-02-21T16:30:34;7.25;;;1.30;;
18649;SDS011;9454;53.516;10.478;2023-02-21T16:33:41;4.20;;;0.90;;
18649;SDS011;9454;53.516;10.478;2023-02-21T16:36:44;5.63;;;1.30;;
18649;SDS011;9454;53.516;10.478;2023-02-21T16:39:48;9.70;;;1.45;;
18649;SDS011;9454;53.516;10.478;2023-02-21T16:42:55;7.32;;;1.58;;
18649;SDS011;9454;53.516;10.478;2023-02-21T16:45:59;7.88;;;1.25;;
18649;SDS011;9454;53.516;10.478;2023-02-21T16:49:04;4.68;;;1.00;;
18649;SDS011;9454;53.516;10.478;2023-02-21T16:52:08;5.13;;;1.15;;
18649;SDS011;9454;53.516;10.478;2023-02-21T16:55:13;3.80;;;0.90;;
18649;SDS011;9454;53.516;10.478;2023-02-21T16:58:19;5.57;;;1.30;;
18649;SDS011;9454;53.516;10.478;2023-02-21T17:01:25;4.13;;;1.00;;
18649;SDS011;9454;53.516;10.478;2023-02-21T17:04:31;4.55;;;0.90;;
18649;SDS011;9454;53.516;10.478;2023-02-21T17:07:34;6.30;;;1.08;;
18649;SDS011;9454;53.516;10.478;2023-02-21T17:10:38;10.65;;;1.13;;
18649;SDS011;9454;53.516;10.478;2023-02-21T17:13:42;3.47;;;0.90;;
18649;SDS011;9454;53.516;10.478;2023-02-21T17:16:46;4.13;;;0.80;;
18649;SDS011;9454;53.516;10.478;2023-02-21T17:19:51;4.35;;;0.82;;
18649;SDS011;9454;53.516;10.478;2023-02-21T17:22:55;6.70;;;1.20;;
18649;SDS011;9454;53.516;10.478;2023-02-21T17:26:00;3.25;;;1.20;;
18649;SDS011;9454;53.516;10.478;2023-02-21T17:29:04;4.10;;;1.05;;
18649;SDS011;9454;53.516;10.478;2023-02-21T17:32:08;9.75;;;1.00;;
18649;SDS011;9454;53.516;10.478;2023-02-21T17:35:14;7.22;;;1.20;;
18649;SDS011;9454;53.516;10.478;2023-02-21T17:38:17;3.88;;;1.20;;
18649;SDS011;9454;53.516;10.478;2023-02-21T17:41:21;13.43;;;1.52;;
18649;SDS011;9454;53.516;10.478;2023-02-21T17:44:25;6.50;;;1.02;;
18649;SDS011;9454;53.516;10.478;2023-02-21T17:47:29;4.80;;;0.93;;
18649;SDS011;9454;53.516;10.478;2023-02-21T17:50:34;8.90;;;1.25;;
18649;SDS011;9454;53.516;10.478;2023-02-21T17:53:39;8.63;;;1.10;;
18649;SDS011;9454;53.516;10.478;2023-02-21T17:56:42;3.42;;;0.82;;
18649;SDS011;9454;53.516;10.478;2023-02-21T17:59:46;5.65;;;1.10;;
18649;SDS011;9454;53.516;10.478;2023-02-21T18:02:50;11.23;;;1.27;;
18649;SDS011;9454;53.516;10.478;2023-02-21T18:05:55;3.33;;;0.98;;
18649;SDS011;9454;53.516;10.478;2023-02-21T18:09:01;4.90;;;0.95;;
18649;SDS011;9454;53.516;10.478;2023-02-21T18:12:06;3.78;;;0.98;;
18649;SDS011;9454;53.516;10.478;2023-02-21T18:15:10;4.88;;;1.15;;
18649;SDS011;9454;53.516;10.478;2023-02-21T18:18:14;8.77;;;1.00;;
18649;SDS011;9454;53.516;10.478;2023-02-21T18:21:19;3.70;;;0.88;;
18649;SDS011;9454;53.516;10.478;2023-02-21T18:24:23;6.57;;;1.23;;
18649;SDS011;9454;53.516;10.478;2023-02-21T18:27:28;3.92;;;1.13;;
18649;SDS011;9454;53.516;10.478;2023-02-21T18:30:31;5.70;;;1.33;;
18649;SDS011;9454;53.516;10.478;2023-02-21T18:33:35;4.63;;;1.02;;
18649;SDS011;9454;53.516;10.478;2023-02-21T18:36:46;4.88;;;1.10;;
18649;SDS011;9454;53.516;10.478;2023-02-21T18:39:50;7.28;;;1.08;;
18649;SDS011;9454;53.516;10.478;2023-02-21T18:42:54;7.68;;;1.25;;
18649;SDS011;9454;53.516;10.478;2023-02-21T18:45:57;5.75;;;1.05;;
18649;SDS011;9454;53.516;10.478;2023-02-21T18:49:01;4.82;;;1.10;;
18649;SDS011;9454;53.516;10.478;2023-02-21T18:52:06;3.30;;;1.23;;
18649;SDS011;9454;53.516;10.478;2023-02-21T18:55:10;7.25;;;1.33;;
18649;SDS011;9454;53.516;10.478;2023-02-21T18:58:14;4.78;;;1.05;;
18649;SDS011;9454;53.516;10.478;2023-02-21T19:01:18;8.45;;;1.00;;
18649;SDS011;9454;53.516;10.478;2023-02-21T19:04:25;6.63;;;1.40;;
18649;SDS011;9454;53.516;10.478;2023-02-21T19:07:30;8.48;;;1.48;;
18649;SDS011;9454;53.516;10.478;2023-02-21T19:10:36;2.53;;;0.80;;
18649;SDS011;9454;53.516;10.478;2023-02-21T19:13:40;3.08;;;1.08;;
18649;SDS011;9454;53.516;10.478;2023-02-21T19:16:48;5.88;;;0.98;;
18649;SDS011;9454;53.516;10.478;2023-02-21T19:19:51;4.55;;;1.48;;
18649;SDS011;9454;53.516;10.478;2023-02-21T19:22:56;7.72;;;1.40;;
18649;SDS011;9454;53.516;10.478;2023-02-21T19:26:00;10.60;;;1.10;;
18649;SDS011;9454;53.516;10.478;2023-02-21T19:29:04;2.85;;;0.98;;
18649;SDS011;9454;53.516;10.478;2023-02-21T19:32:09;2.97;;;1.02;;
18649;SDS011;9454;53.516;10.478;2023-02-21T19:35:12;3.80;;;1.02;;
18649;SDS011;9454;53.516;10.478;2023-02-21T19:38:21;1.73;;;0.90;;
18649;SDS011;9454;53.516;10.478;2023-02-21T19:41:25;6.72;;;1.10;;
18649;SDS011;9454;53.516;10.478;2023-02-21T19:44:33;11.30;;;1.20;;
18649;SDS011;9454;53.516;10.478;2023-02-21T19:48:24;2.70;;;1.30;;
18649;SDS011;9454;53.516;10.478;2023-02-21T19:51:43;4.15;;;1.08;;
18649;SDS011;9454;53.516;10.478;2023-02-21T20:01:06;4.03;;;0.93;;
18649;SDS011;9454;53.516;10.478;2023-02-21T20:04:10;3.17;;;1.10;;
18649;SDS011;9454;53.516;10.478;2023-02-21T20:07:14;5.18;;;1.35;;
18649;SDS011;9454;53.516;10.478;2023-02-21T20:10:17;9.57;;;2.60;;
18649;SDS011;9454;53.516;10.478;2023-02-21T20:13:25;7.00;;;2.17;;
18649;SDS011;9454;53.516;10.478;2023-02-21T20:16:35;5.93;;;1.55;;
18649;SDS011;9454;53.516;10.478;2023-02-21T20:19:54;4.97;;;1.33;;
18649;SDS011;9454;53.516;10.478;2023-02-21T20:23:10;14.60;;;1.73;;
18649;SDS011;9454;53.516;10.478;2023-02-21T20:26:14;6.22;;;3.00;;
18649;SDS011;9454;53.516;10.478;2023-02-21T20:29:33;3.83;;;0.98;;
18649;SDS011;9454;53.516;10.478;2023-02-21T20:32:57;3.47;;;1.40;;
18649;SDS011;9454;53.516;10.478;2023-02-21T20:36:43;11.23;;;2.70;;
18649;SDS011;9454;53.516;10.478;2023-02-21T20:39:54;16.45;;;3.38;;
18649;SDS011;9454;53.516;10.478;2023-02-21T20:43:27;10.23;;;3.78;;
18649;SDS011;9454;53.516;10.478;2023-02-21T20:46:33;8.82;;;2.63;;